Time;durP1;ratioP1;P1;durP2;ratioP2;P2;SDS_P1;SDS_P2;PMS_P1;PMS_P2;Temp;Humidity;BMP_temperature;BMP_pressure;BME280_temperature;BME280_humidity;BME280_pressure;Samples;Min_cycle;Max_cycle;Signal;HPM_P1;HPM_P2
2021/03/04 00:00:01;;;;;;;55.67;27.63;;;;;;;3.55;71.65;99168.98;258673;1109;23554;-70
2021/03/04 00:05:13;;;;;;;56.33;28.00;;;;;;;3.43;71.58;99153.08;259062;1109;23041;-71
2021/03/04 00:10:20;;;;;;;46.83;24.17;;;;;;;3.37;72.23;99153.20;258890;1108;23464;-72
2021/03/04 00:15:24;;;;;;;60.73;29.30;;;;;;;3.34;72.98;99145.72;258736;1109;23037;-72
2021/03/04 00:20:32;;;;;;;58.37;28.10;;;;;;;3.29;73.08;99141.13;259172;1108;23018;-72
2021/03/04 00:25:35;;;;;;;54.93;26.57;;;;;;;3.22;73.29;99135.94;259099;1109;23025;-72
2021/03/04 00:30:38;;;;;;;49.30;26.53;;;;;;;3.22;73.35;99129.86;259221;1108;23441;-72
2021/03/04 00:35:41;;;;;;;48.05;23.95;;;;;;;3.21;73.53;99131.67;258758;1109;23280;-73
2021/03/04 00:40:43;;;;;;;57.23;28.93;;;;;;;3.19;73.70;99117.05;258827;1109;23079;-70
2021/03/04 00:45:45;;;;;;;61.13;28.90;;;;;;;3.14;74.14;99115.11;258726;1109;23033;-72
2021/03/04 00:50:47;;;;;;;49.45;24.95;;;;;;;3.11;74.04;99109.48;258694;1109;23561;-72
2021/03/04 00:55:49;;;;;;;62.00;29.27;;;;;;;3.13;74.08;99104.75;258788;1109;23062;-71
2021/03/04 01:00:52;;;;;;;55.87;28.20;;;;;;;3.21;74.41;99083.23;258656;1108;23076;-73
2021/03/04 01:05:54;;;;;;;59.77;29.37;;;;;;;3.28;74.77;99080.46;259103;1108;23084;-71
2021/03/04 01:10:57;;;;;;;55.77;27.80;;;;;;;3.36;74.51;99077.45;258946;1108;23023;-71
2021/03/04 01:15:59;;;;;;;60.33;29.63;;;;;;;3.42;74.61;99060.62;258791;1108;23042;-72
2021/03/04 01:21:04;;;;;;;61.97;29.37;;;;;;;3.41;74.37;99051.05;258630;1108;23323;-71
2021/03/04 01:26:06;;;;;;;61.47;29.53;;;;;;;3.37;74.78;99040.14;258785;1107;23027;-72
2021/03/04 01:31:08;;;;;;;61.17;29.43;;;;;;;3.32;75.02;99047.19;258867;1108;23083;-71
2021/03/04 01:36:10;;;;;;;57.75;27.85;;;;;;;3.27;75.53;99044.42;258883;1109;23835;-71
2021/03/04 01:41:13;;;;;;;59.57;30.63;;;;;;;3.26;75.66;99040.98;259024;1109;23209;-72
2021/03/04 01:46:15;;;;;;;51.83;26.60;;;;;;;3.29;75.93;99027.27;258705;1107;23080;-71
2021/03/04 01:51:26;;;;;;;58.28;29.77;;;;;;;3.33;75.65;99027.59;259089;1109;23366;-71
2021/03/04 01:56:28;;;;;;;51.17;27.97;;;;;;;3.39;75.84;99013.42;259015;1108;23205;-72
2021/03/04 02:01:30;;;;;;;55.33;26.90;;;;;;;3.44;75.99;99005.55;259050;1108;23018;-73
2021/03/04 02:06:48;;;;;;;49.70;27.00;;;;;;;3.49;76.26;98995.06;258965;1109;23239;-72
2021/03/04 02:12:05;;;;;;;54.37;30.03;;;;;;;3.53;76.36;98992.77;258710;1109;26471;-71
2021/03/04 02:17:11;;;;;;;63.45;29.45;;;;;;;3.52;76.24;98985.85;258938;1109;23468;-71
2021/03/04 02:22:19;;;;;;;55.10;28.83;;;;;;;3.50;76.46;98982.62;258651;1108;23212;-72
2021/03/04 02:27:25;;;;;;;54.63;27.70;;;;;;;3.44;76.31;98989.66;258648;1108;23160;-72
2021/03/04 02:32:30;;;;;;;56.75;28.75;;;;;;;3.36;76.52;98963.58;258684;1109;23173;-70
2021/03/04 02:37:39;;;;;;;57.10;29.07;;;;;;;3.28;76.31;98950.72;257924;1109;23152;-72
2021/03/04 02:42:43;;;;;;;53.17;26.77;;;;;;;3.18;76.32;98946.83;258751;1109;23146;-72
2021/03/04 02:47:46;;;;;;;52.50;27.03;;;;;;;3.14;76.39;98950.98;258862;1109;27660;-72
2021/03/04 02:52:50;;;;;;;54.25;27.15;;;;;;;3.10;76.97;98933.16;258773;1109;23086;-71
2021/03/04 02:57:54;;;;;;;56.17;28.73;;;;;;;3.04;76.90;98934.91;258801;1108;23059;-72
2021/03/04 03:02:59;;;;;;;54.83;27.10;;;;;;;3.06;77.39;98922.23;259100;1108;27333;-71
2021/03/04 03:08:03;;;;;;;51.07;25.47;;;;;;;3.06;77.08;98917.76;258836;1109;26686;-72
2021/03/04 03:13:07;;;;;;;54.50;27.70;;;;;;;3.10;77.11;98923.37;258707;1109;23081;-72
2021/03/04 03:18:10;;;;;;;47.67;26.07;;;;;;;3.15;77.38;98923.47;258681;1109;23202;-72
2021/03/04 03:23:12;;;;;;;48.93;24.90;;;;;;;3.15;77.06;98920.83;259138;1109;23927;-72
2021/03/04 03:28:14;;;;;;;47.23;25.03;;;;;;;3.13;77.62;98906.22;258625;1108;23151;-72
2021/03/04 03:33:18;;;;;;;38.47;20.93;;;;;;;3.07;76.93;98919.34;259042;1109;23229;-71
2021/03/04 03:38:21;;;;;;;51.63;25.53;;;;;;;3.00;77.30;98912.59;258980;1109;23062;-71
2021/03/04 03:43:24;;;;;;;48.27;23.90;;;;;;;2.95;77.34;98905.34;258760;1109;23209;-72
2021/03/04 03:48:28;;;;;;;46.40;22.95;;;;;;;2.91;77.26;98896.29;259022;1109;26406;-73
2021/03/04 03:53:31;;;;;;;55.57;27.63;;;;;;;2.90;77.12;98898.11;258645;1109;27686;-71
2021/03/04 03:58:38;;;;;;;50.83;24.43;;;;;;;2.88;77.33;98886.97;258794;1109;23017;-70
2021/03/04 04:03:40;;;;;;;48.30;24.73;;;;;;;2.86;78.06;98888.24;259121;1109;23024;-71
2021/03/04 04:08:43;;;;;;;48.60;24.70;;;;;;;2.88;78.01;98897.56;259096;1107;23131;-72
2021/03/04 04:13:45;;;;;;;48.67;25.63;;;;;;;2.90;78.51;98902.61;259035;1108;23083;-72
2021/03/04 04:18:48;;;;;;;53.77;27.17;;;;;;;2.91;77.49;98891.79;259080;1109;23090;-76
2021/03/04 04:23:50;;;;;;;50.13;26.90;;;;;;;2.93;78.29;98885.47;258984;1109;23819;-70
2021/03/04 04:28:52;;;;;;;62.47;28.90;;;;;;;2.95;78.52;98888.66;258766;1109;23075;-71
2021/03/04 04:33:54;;;;;;;55.73;28.67;;;;;;;2.97;78.29;98882.11;259058;1108;23036;-71
2021/03/04 04:38:57;;;;;;;55.20;27.27;;;;;;;2.99;78.48;98877.36;258745;1109;23061;-72
2021/03/04 04:43:59;;;;;;;50.70;26.10;;;;;;;3.02;78.30;98876.09;258656;1109;24605;-71
2021/03/04 04:49:01;;;;;;;53.80;28.60;;;;;;;2.97;78.39;98870.72;258629;1109;23037;-72
2021/03/04 04:54:04;;;;;;;54.40;27.57;;;;;;;2.89;77.92;98872.68;258567;1108;23025;-72
2021/03/04 04:59:06;;;;;;;50.00;26.57;;;;;;;2.86;78.30;98875.01;258592;1109;23025;-71
2021/03/04 05:04:08;;;;;;;44.77;23.03;;;;;;;2.80;78.71;98866.17;258936;1108;22993;-72
2021/03/04 05:09:11;;;;;;;50.40;25.85;;;;;;;2.77;78.07;98852.59;258687;1109;26733;-72
2021/03/04 05:14:14;;;;;;;59.43;27.50;;;;;;;2.76;79.28;98853.62;258985;1109;22998;-71
2021/03/04 05:19:17;;;;;;;52.97;27.03;;;;;;;2.76;79.47;98850.98;258742;1109;23046;-72
2021/03/04 05:24:19;;;;;;;53.13;27.70;;;;;;;2.75;79.63;98850.19;258765;1109;23286;-72
2021/03/04 05:29:21;;;;;;;45.83;24.17;;;;;;;2.78;80.03;98843.63;258624;1109;27736;-72
2021/03/04 05:34:24;;;;;;;50.07;25.87;;;;;;;2.82;80.08;98842.91;258973;1109;23262;-71
2021/03/04 05:39:26;;;;;;;57.40;29.33;;;;;;;2.87;79.59;98842.23;258970;1109;23222;-72
2021/03/04 05:44:29;;;;;;;55.43;29.47;;;;;;;2.95;79.61;98841.03;258889;1108;23018;-71
2021/03/04 05:49:37;;;;;;;52.05;27.70;;;;;;;2.99;79.98;98839.52;258765;1108;23030;-71
2021/03/04 05:54:42;;;;;;;51.83;26.07;;;;;;;3.04;79.62;98829.04;258759;1109;27752;-72
2021/03/04 05:59:44;;;;;;;61.37;30.53;;;;;;;3.10;79.39;98824.63;258748;1109;23087;-71
2021/03/04 06:04:47;;;;;;;52.23;27.07;;;;;;;3.18;79.88;98822.40;258828;1109;23174;-71
2021/03/04 06:09:52;;;;;;;56.50;27.80;;;;;;;3.28;79.65;98826.27;259225;1109;23074;-73
2021/03/04 06:14:55;;;;;;;55.50;28.30;;;;;;;3.35;79.73;98818.97;258689;1109;23638;-72
2021/03/04 06:19:58;;;;;;;58.20;29.00;;;;;;;3.44;78.98;98817.52;258683;1109;23027;-73
2021/03/04 06:25:15;;;;;;;65.50;30.70;;;;;;;3.50;79.18;98811.27;258898;1109;23916;-72
2021/03/04 06:30:17;;;;;;;53.93;27.00;;;;;;;3.62;78.87;98808.53;259331;1109;23001;-73
2021/03/04 06:35:19;;;;;;;54.07;28.33;;;;;;;3.72;78.74;98813.18;258844;1109;23089;-72
2021/03/04 06:40:30;;;;;;;54.73;29.13;;;;;;;3.83;78.86;98819.44;258664;1109;23077;-72
2021/03/04 06:45:33;;;;;;;;;;;;;;;3.95;78.34;98806.90;259333;1108;23211;-72
2021/03/04 06:50:38;;;;;;;61.87;29.60;;;;;;;4.03;78.21;98805.67;258900;1109;23135;-71
2021/03/04 06:55:57;;;;;;;56.97;29.97;;;;;;;4.15;78.35;98803.72;259194;1108;23764;-72
2021/03/04 07:01:10;;;;;;;55.40;28.38;;;;;;;4.31;78.47;98796.77;259111;1109;23205;-73
2021/03/04 07:06:15;;;;;;;48.47;25.53;;;;;;;4.48;78.42;98794.05;259310;1109;23232;-73
2021/03/04 07:11:20;;;;;;;53.90;29.03;;;;;;;4.65;77.75;98798.49;259791;1109;23938;-72
2021/03/04 07:16:44;;;;;;;55.67;28.50;;;;;;;4.83;78.19;98786.72;259180;1108;23226;-71
2021/03/04 07:21:48;;;;;;;54.75;28.25;;;;;;;5.15;77.56;98792.09;259318;1109;23177;-71
2021/03/04 07:26:52;;;;;;;60.00;30.65;;;;;;;5.40;76.69;98778.22;264566;1108;23083;-70
2021/03/04 07:31:54;;;;;;;56.27;29.30;;;;;;;5.63;76.80;98770.94;259676;1108;23093;-70
2021/03/04 07:36:57;;;;;;;58.73;32.97;;;;;;;5.83;75.82;98772.91;260608;1109;23459;-70
2021/03/04 07:41:59;;;;;;;52.70;30.23;;;;;;;6.02;75.47;98777.86;262553;1108;23206;-70
2021/03/04 07:47:06;;;;;;;65.47;31.67;;;;;;;6.20;75.26;98776.59;259189;1107;26047;-71
2021/03/04 07:52:18;;;;;;;58.87;30.13;;;;;;;6.27;75.34;98777.97;259394;1109;23024;-71
2021/03/04 07:57:26;;;;;;;59.17;30.40;;;;;;;6.35;74.96;98773.98;258799;1109;26658;-72
2021/03/04 08:02:28;;;;;;;76.17;35.53;;;;;;;6.44;74.68;98766.33;259104;1107;23034;-72
2021/03/04 08:07:31;;;;;;;62.37;29.57;;;;;;;6.63;74.57;98774.62;259127;1109;23151;-72
2021/03/04 08:12:44;;;;;;;52.87;28.67;;;;;;;6.91;74.78;98759.23;258825;1108;23051;-72
2021/03/04 08:17:46;;;;;;;62.20;32.90;;;;;;;7.22;73.68;98767.25;258749;1108;23026;-71
2021/03/04 08:22:50;;;;;;;57.40;29.80;;;;;;;7.42;73.71;98766.47;258807;1109;23075;-73
2021/03/04 08:27:54;;;;;;;62.60;32.10;;;;;;;7.66;73.43;98772.04;259181;1108;23094;-72
2021/03/04 08:33:00;;;;;;;57.17;31.17;;;;;;;7.97;72.96;98771.98;259349;1108;23080;-72
2021/03/04 08:38:05;;;;;;;63.70;33.93;;;;;;;8.22;72.00;98773.77;258960;1109;23235;-71
2021/03/04 08:43:09;;;;;;;58.33;30.30;;;;;;;8.29;70.53;98757.47;258966;1108;23954;-72
2021/03/04 08:48:13;;;;;;;60.30;31.73;;;;;;;8.43;70.99;98763.80;259209;1108;23016;-71
2021/03/04 08:53:25;;;;;;;62.07;34.97;;;;;;;8.55;70.98;98760.86;259164;1108;23452;-72
2021/03/04 08:58:30;;;;;;;58.27;33.23;;;;;;;8.70;70.82;98755.43;259533;1109;23097;-71
2021/03/04 09:03:38;;;;;;;53.53;30.90;;;;;;;8.86;70.29;98758.00;259165;1109;25847;-71
2021/03/04 09:08:42;;;;;;;56.27;27.40;;;;;;;8.96;69.83;98763.27;259143;1109;23079;-69
2021/03/04 09:13:44;;;;;;;54.07;29.97;;;;;;;8.96;68.95;98757.93;259568;1108;23360;-70
2021/03/04 09:18:47;;;;;;;51.15;29.90;;;;;;;9.13;68.95;98748.73;259237;1109;22990;-70
2021/03/04 09:23:49;;;;;;;50.00;29.75;;;;;;;9.36;68.67;98745.33;258939;1109;23039;-71
2021/03/04 09:28:52;;;;;;;48.93;28.77;;;;;;;9.70;68.94;98749.04;259463;1108;23034;-71
2021/03/04 09:34:02;;;;;;;49.97;29.50;;;;;;;10.03;68.02;98735.83;258926;1109;23097;-71
2021/03/04 09:39:04;;;;;;;;;;;;;;;10.34;67.83;98730.10;259464;1109;23217;-71
2021/03/04 09:44:07;;;;;;;52.90;31.67;;;;;;;10.51;66.49;98735.02;259087;1108;21529;-71
2021/03/04 09:49:10;;;;;;;48.03;30.97;;;;;;;10.68;66.61;98729.95;259039;1109;22980;-73
2021/03/04 09:54:24;;;;;;;51.87;31.00;;;;;;;10.83;65.82;98725.45;259067;1108;23041;-72
2021/03/04 09:59:50;;;;;;;51.40;31.60;;;;;;;10.97;65.08;98720.96;259072;1109;23072;-73
2021/03/04 10:04:56;;;;;;;46.47;30.53;;;;;;;10.98;64.38;98700.30;259004;1109;26407;-72
2021/03/04 10:09:59;;;;;;;53.07;31.73;;;;;;;10.89;64.05;98708.22;259088;1108;23043;-71
2021/03/04 10:15:01;;;;;;;53.10;32.27;;;;;;;10.91;63.99;98706.84;259167;1108;23390;-74
2021/03/04 10:20:04;;;;;;;47.63;30.80;;;;;;;10.87;63.48;98697.80;259480;1109;26536;-71
2021/03/04 10:25:06;;;;;;;49.27;30.80;;;;;;;10.87;64.25;98702.34;259877;1108;23086;-71
2021/03/04 10:30:13;;;;;;;54.13;32.00;;;;;;;10.95;63.76;98701.68;259269;1109;24733;-71
2021/03/04 10:35:16;;;;;;;54.43;30.90;;;;;;;10.96;63.40;98692.56;259332;1107;24037;-70
2021/03/04 10:40:20;;;;;;;51.10;31.47;;;;;;;11.12;63.94;98685.86;259438;1108;24657;-70
2021/03/04 10:45:22;;;;;;;43.80;29.40;;;;;;;11.26;63.89;98683.22;259310;1109;23116;-70
2021/03/04 10:50:27;;;;;;;43.80;27.27;;;;;;;11.42;63.52;98678.37;258304;1109;23020;-72
2021/03/04 10:55:30;;;;;;;49.57;31.20;;;;;;;11.67;63.72;98664.77;259632;1109;26060;-72
2021/03/04 11:00:32;;;;;;;46.90;29.20;;;;;;;11.73;61.27;98677.80;259225;1108;22990;-71
2021/03/04 11:05:35;;;;;;;47.00;32.45;;;;;;;11.62;62.15;98668.35;259188;1109;23032;-71
2021/03/04 11:10:38;;;;;;;48.95;31.20;;;;;;;11.53;61.70;98664.76;259326;1107;23081;-72
2021/03/04 11:15:40;;;;;;;45.33;30.33;;;;;;;11.42;62.20;98664.17;259683;1109;23032;-70
2021/03/04 11:20:42;;;;;;;49.35;30.35;;;;;;;11.42;62.23;98650.77;259627;1108;23226;-72
2021/03/04 11:25:44;;;;;;;52.67;31.93;;;;;;;11.34;62.46;98646.08;258987;1109;27309;-72
2021/03/04 11:30:47;;;;;;;50.67;31.23;;;;;;;11.38;61.96;98631.77;259464;1108;23020;-73
2021/03/04 11:35:49;;;;;;;46.30;29.35;;;;;;;11.45;61.98;98626.80;259307;1108;23573;-72
2021/03/04 11:40:52;;;;;;;49.53;31.13;;;;;;;11.50;62.37;98619.76;259061;1109;23100;-73
2021/03/04 11:45:54;;;;;;;56.17;34.43;;;;;;;11.55;61.96;98617.77;258938;1107;23465;-72
2021/03/04 11:50:58;;;;;;;46.03;30.20;;;;;;;11.47;60.60;98611.23;259351;1108;23174;-72
2021/03/04 11:56:01;;;;;;;49.05;28.25;;;;;;;11.37;60.85;98600.67;259249;1109;23157;-71
2021/03/04 12:01:03;;;;;;;41.13;27.20;;;;;;;11.37;61.33;98595.31;259143;1107;23229;-71
2021/03/04 12:06:06;;;;;;;42.37;27.90;;;;;;;11.35;61.01;98581.42;259014;1108;23079;-71
2021/03/04 12:11:08;;;;;;;44.95;27.55;;;;;;;11.28;61.46;98575.66;258841;1108;23079;-72
2021/03/04 12:16:11;;;;;;;42.45;27.25;;;;;;;11.20;60.43;98569.09;258953;1108;23148;-72
2021/03/04 12:21:13;;;;;;;39.30;23.83;;;;;;;11.10;60.65;98545.95;259304;1109;23026;-72
2021/03/04 12:26:15;;;;;;;42.13;25.30;;;;;;;11.05;60.96;98550.61;258962;1108;23038;-73
2021/03/04 12:31:19;;;;;;;41.40;24.37;;;;;;;11.10;60.73;98535.22;259112;1108;22993;-73
2021/03/04 12:36:21;;;;;;;39.60;25.15;;;;;;;11.13;60.34;98533.84;258945;1108;23417;-72
2021/03/04 12:41:23;;;;;;;35.77;23.17;;;;;;;11.15;60.57;98533.54;258993;1108;23179;-72
2021/03/04 12:46:25;;;;;;;40.15;24.55;;;;;;;11.17;59.61;98531.38;259067;1109;23379;-74
2021/03/04 12:51:27;;;;;;;38.77;24.23;;;;;;;11.05;59.23;98532.66;259475;1108;27617;-72
2021/03/04 12:56:29;;;;;;;39.10;22.50;;;;;;;10.90;59.42;98525.69;259058;1109;23085;-74
2021/03/04 13:01:32;;;;;;;35.77;23.27;;;;;;;10.81;59.93;98524.77;259150;1109;26050;-75
2021/03/04 13:06:35;;;;;;;37.20;22.10;;;;;;;10.75;60.15;98513.36;259229;1109;23208;-74
2021/03/04 13:11:41;;;;;;;36.60;24.00;;;;;;;10.71;60.23;98508.89;259295;1108;23279;-73
2021/03/04 13:16:44;;;;;;;35.43;23.20;;;;;;;10.71;60.24;98504.31;259064;1108;23444;-74
2021/03/04 13:21:48;;;;;;;34.40;23.87;;;;;;;10.74;60.61;98495.69;258993;1109;23130;-73
2021/03/04 13:26:52;;;;;;;42.20;23.60;;;;;;;10.74;60.13;98498.36;259186;1109;23024;-72
2021/03/04 13:31:54;;;;;;;40.70;23.57;;;;;;;10.78;60.76;98490.54;259118;1109;23036;-72
2021/03/04 13:36:56;;;;;;;50.07;28.10;;;;;;;10.70;60.06;98494.72;259116;1109;23192;-73
2021/03/04 13:41:58;;;;;;;53.87;32.47;;;;;;;10.57;59.91;98484.76;259399;1109;23029;-73
2021/03/04 13:47:01;;;;;;;56.47;30.47;;;;;;;10.49;59.83;98490.79;259277;1109;23354;-71
2021/03/04 13:52:04;;;;;;;48.57;29.63;;;;;;;10.43;59.80;98492.77;259350;1108;23336;-74
2021/03/04 13:57:06;;;;;;;57.03;31.97;;;;;;;10.34;60.48;98479.27;259468;1108;22991;-72
2021/03/04 14:02:09;;;;;;;50.60;30.23;;;;;;;10.28;61.00;98481.20;259118;1109;23059;-73
2021/03/04 14:07:12;;;;;;;48.20;28.33;;;;;;;10.25;60.28;98470.27;259182;1109;23096;-73
2021/03/04 14:12:14;;;;;;;49.50;28.05;;;;;;;10.11;59.71;98470.23;259538;1109;23196;-71
2021/03/04 14:17:16;;;;;;;46.27;26.60;;;;;;;10.03;60.36;98463.67;259162;1108;23094;-73
2021/03/04 14:22:19;;;;;;;83.30;50.67;;;;;;;10.14;61.76;98452.80;259300;1109;23461;-72
2021/03/04 14:27:21;;;;;;;56.80;32.75;;;;;;;10.08;61.08;98452.86;259220;1107;26054;-71
2021/03/04 14:32:23;;;;;;;57.30;31.33;;;;;;;10.01;61.72;98447.10;259575;1109;23158;-73
2021/03/04 14:37:31;;;;;;;52.35;30.75;;;;;;;9.92;61.88;98427.46;259346;1109;23158;-71
2021/03/04 14:42:35;;;;;;;52.97;30.40;;;;;;;9.80;62.56;98433.25;260020;1107;23002;-73
2021/03/04 14:47:37;;;;;;;54.63;31.97;;;;;;;9.76;62.94;98425.03;260339;1109;23003;-74
2021/03/04 14:52:39;;;;;;;63.80;35.37;;;;;;;9.73;63.36;98419.45;262009;1108;23076;-73
2021/03/04 14:57:42;;;;;;;56.35;30.35;;;;;;;9.67;63.87;98407.25;259960;1108;23077;-73
2021/03/04 15:02:44;;;;;;;54.93;30.67;;;;;;;9.57;64.05;98397.51;260060;1109;23086;-73
2021/03/04 15:07:47;;;;;;;59.20;33.95;;;;;;;9.47;64.43;98398.45;264879;1107;23014;-73
2021/03/04 15:12:49;;;;;;;61.55;36.50;;;;;;;9.37;65.09;98402.07;259518;1108;26121;-74
2021/03/04 15:17:51;;;;;;;49.73;29.57;;;;;;;9.21;65.23;98400.69;259332;1108;23020;-74
2021/03/04 15:22:53;;;;;;;53.63;31.60;;;;;;;8.98;66.12;98387.09;259340;1107;23002;-73
2021/03/04 15:27:56;;;;;;;52.63;30.27;;;;;;;8.79;66.76;98383.59;259322;1109;23034;-74
2021/03/04 15:32:58;;;;;;;58.50;33.77;;;;;;;8.67;67.18;98375.97;258795;1109;23083;-73
2021/03/04 15:38:01;;;;;;;52.20;31.65;;;;;;;8.62;68.13;98363.48;258789;1109;23040;-74
2021/03/04 15:43:04;;;;;;;55.13;30.90;;;;;;;8.52;68.10;98364.41;258852;1109;23073;-72
2021/03/04 15:48:11;;;;;;;66.30;36.57;;;;;;;8.41;68.85;98368.23;258869;1109;23024;-74
2021/03/04 15:53:16;;;;;;;54.33;30.83;;;;;;;8.28;69.54;98367.05;259168;1109;23525;-73
2021/03/04 15:58:18;;;;;;;57.30;33.50;;;;;;;8.17;70.92;98369.02;258934;1108;23054;-74
2021/03/04 16:03:21;;;;;;;61.27;33.43;;;;;;;8.03;71.21;98368.88;258869;1109;23545;-72
2021/03/04 16:08:26;;;;;;;58.77;32.20;;;;;;;7.96;71.68;98370.27;259156;1108;23407;-72
2021/03/04 16:13:36;;;;;;;53.60;32.17;;;;;;;7.90;72.06;98372.19;259122;1109;22990;-72
2021/03/04 16:18:40;;;;;;;59.90;34.80;;;;;;;7.82;71.75;98375.45;258746;1109;23018;-72
2021/03/04 16:23:43;;;;;;;71.60;39.03;;;;;;;7.77;71.70;98364.84;258712;1109;23043;-74
2021/03/04 16:28:46;;;;;;;64.87;33.47;;;;;;;7.68;72.42;98364.63;258916;1109;23138;-72
2021/03/04 16:33:50;;;;;;;68.47;36.17;;;;;;;7.63;72.41;98370.02;258631;1108;26209;-74
2021/03/04 16:38:53;;;;;;;69.17;38.97;;;;;;;7.59;72.96;98374.31;258840;1109;23023;-73
2021/03/04 16:43:56;;;;;;;66.97;36.17;;;;;;;7.53;73.44;98373.56;259060;1109;23276;-73
2021/03/04 16:49:00;;;;;;;86.53;47.90;;;;;;;7.43;74.03;98377.09;258867;1108;23172;-74
2021/03/04 16:54:03;;;;;;;91.00;50.45;;;;;;;7.36;73.85;98365.95;259060;1109;23089;-73
2021/03/04 16:59:06;;;;;;;78.85;42.15;;;;;;;7.28;74.34;98380.64;258839;1108;23631;-73
2021/03/04 17:04:11;;;;;;;75.10;41.27;;;;;;;7.25;74.83;98388.41;258823;1109;23083;-73
2021/03/04 17:09:14;;;;;;;67.15;34.75;;;;;;;7.18;74.85;98375.39;258794;1109;23215;-73
2021/03/04 17:14:17;;;;;;;69.13;37.87;;;;;;;7.14;75.39;98385.00;259049;1107;23427;-74
2021/03/04 17:19:19;;;;;;;69.13;38.83;;;;;;;7.12;75.60;98387.13;258864;1109;23019;-73
2021/03/04 17:24:22;;;;;;;65.90;37.33;;;;;;;7.08;75.87;98380.75;258914;1109;23181;-73
2021/03/04 17:29:25;;;;;;;65.03;37.17;;;;;;;7.02;76.21;98382.64;258853;1107;23215;-73
2021/03/04 17:34:28;;;;;;;66.67;37.57;;;;;;;6.98;76.70;98370.95;258815;1107;23024;-73
2021/03/04 17:39:30;;;;;;;76.93;42.17;;;;;;;6.89;77.19;98377.94;258773;1109;23074;-73
2021/03/04 17:44:32;;;;;;;72.37;41.77;;;;;;;6.81;77.27;98377.44;258772;1109;23079;-73
2021/03/04 17:49:34;;;;;;;75.00;40.83;;;;;;;6.80;77.40;98377.69;258731;1109;23086;-74
2021/03/04 17:54:37;;;;;;;77.60;42.20;;;;;;;6.75;77.36;98372.40;258854;1109;23022;-73
2021/03/04 17:59:39;;;;;;;79.33;40.43;;;;;;;6.69;78.18;98371.63;258913;1108;23034;-72
2021/03/04 18:04:41;;;;;;;77.00;43.75;;;;;;;6.66;77.88;98362.31;259272;1108;23080;-73
2021/03/04 18:09:43;;;;;;;76.33;39.50;;;;;;;6.66;77.72;98364.98;258769;1109;23178;-73
2021/03/04 18:14:45;;;;;;;71.77;39.37;;;;;;;6.65;77.44;98360.72;258756;1109;25963;-74
2021/03/04 18:19:47;;;;;;;76.30;42.53;;;;;;;6.67;78.26;98360.44;259014;1108;23261;-73
2021/03/04 18:24:52;;;;;;;73.65;40.85;;;;;;;6.64;78.16;98353.79;259034;1108;23053;-73
2021/03/04 18:29:54;;;;;;;85.03;44.30;;;;;;;6.61;78.59;98356.22;258887;1109;23162;-74
2021/03/04 18:34:56;;;;;;;80.23;43.63;;;;;;;6.61;77.89;98354.34;258855;1109;23032;-74
2021/03/04 18:39:58;;;;;;;85.03;45.60;;;;;;;6.57;78.92;98347.97;258804;1108;22997;-73
2021/03/04 18:45:01;;;;;;;83.13;44.93;;;;;;;6.56;78.46;98341.08;258970;1109;23946;-72
2021/03/04 18:50:04;;;;;;;89.23;46.70;;;;;;;6.62;78.96;98347.17;258965;1107;23232;-75
2021/03/04 18:55:07;;;;;;;81.00;45.80;;;;;;;6.71;78.66;98350.84;259012;1109;23409;-74
2021/03/04 19:00:11;;;;;;;67.63;40.17;;;;;;;6.80;78.91;98337.75;258831;1108;23699;-73
2021/03/04 19:05:15;;;;;;;84.75;46.35;;;;;;;6.80;78.45;98335.90;258811;1109;23158;-74
2021/03/04 19:10:17;;;;;;;77.40;41.75;;;;;;;6.82;78.38;98336.41;259012;1109;23089;-74
2021/03/04 19:15:21;;;;;;;73.25;43.10;;;;;;;6.79;78.81;98328.98;258858;1109;23025;-74
2021/03/04 19:20:23;;;;;;;75.47;44.07;;;;;;;6.79;78.86;98331.64;259042;1108;23248;-72
2021/03/04 19:25:25;;;;;;;81.30;42.13;;;;;;;6.76;78.44;98326.87;258799;1109;26025;-73
2021/03/04 19:30:36;;;;;;;89.85;47.45;;;;;;;6.77;79.33;98335.64;258951;1107;23064;-73
2021/03/04 19:35:39;;;;;;;78.90;44.20;;;;;;;6.86;79.06;98336.67;258810;1108;23079;-73
2021/03/04 19:40:42;;;;;;;75.27;42.97;;;;;;;6.88;78.98;98341.72;258815;1107;22997;-73
2021/03/04 19:45:44;;;;;;;75.07;42.80;;;;;;;6.95;78.83;98345.69;258935;1109;23080;-73
2021/03/04 19:50:47;;;;;;;92.67;46.73;;;;;;;6.97;79.35;98338.20;258810;1109;23217;-74
2021/03/04 19:55:50;;;;;;;69.67;38.30;;;;;;;6.96;78.65;98344.59;259045;1109;23087;-73
2021/03/04 20:00:52;;;;;;;73.80;39.93;;;;;;;6.84;78.22;98360.91;258823;1109;23078;-72
2021/03/04 20:05:54;;;;;;;75.47;39.80;;;;;;;6.64;77.83;98359.11;258850;1109;23027;-73
2021/03/04 20:10:56;;;;;;;65.93;38.00;;;;;;;6.45;77.83;98366.09;258819;1109;23032;-73
2021/03/04 20:15:58;;;;;;;64.70;36.15;;;;;;;6.24;77.97;98370.67;258863;1107;23070;-74
2021/03/04 20:21:01;;;;;;;65.00;33.00;;;;;;;5.97;78.13;98369.95;258860;1109;22996;-73
2021/03/04 20:26:03;;;;;;;60.85;33.80;;;;;;;5.71;78.30;98368.31;258663;1108;23493;-73
2021/03/04 20:31:06;;;;;;;63.67;32.43;;;;;;;5.50;78.59;98370.98;258690;1109;23088;-73
2021/03/04 20:36:10;;;;;;;62.00;32.87;;;;;;;5.34;79.11;98367.49;258864;1109;23215;-74
2021/03/04 20:41:12;;;;;;;59.97;32.13;;;;;;;5.21;79.08;98375.98;258834;1109;23599;-73
2021/03/04 20:46:14;;;;;;;59.97;33.17;;;;;;;5.10;79.51;98389.22;258708;1108;23026;-74
2021/03/04 20:51:17;;;;;;;68.77;35.57;;;;;;;5.02;80.08;98395.03;258814;1109;23037;-74
2021/03/04 20:56:19;;;;;;;62.05;31.95;;;;;;;4.96;80.18;98396.09;258823;1109;23006;-74
2021/03/04 21:01:21;;;;;;;54.57;30.43;;;;;;;4.89;80.11;98398.19;258725;1109;23084;-72
2021/03/04 21:06:24;;;;;;;71.05;34.70;;;;;;;4.82;80.35;98398.42;259141;1109;23734;-73
2021/03/04 21:11:26;;;;;;;63.50;33.30;;;;;;;4.77;80.49;98391.25;258883;1109;23683;-74
2021/03/04 21:16:29;;;;;;;71.73;38.13;;;;;;;4.74;81.22;98398.92;258822;1108;23186;-74
2021/03/04 21:21:31;;;;;;;70.57;36.93;;;;;;;4.72;81.58;98398.39;258850;1109;26506;-73
2021/03/04 21:26:33;;;;;;;67.43;34.70;;;;;;;4.67;81.33;98391.19;258836;1109;23577;-74
2021/03/04 21:31:35;;;;;;;64.67;32.20;;;;;;;4.61;81.08;98394.89;258794;1108;23080;-75
2021/03/04 21:36:39;;;;;;;59.80;30.73;;;;;;;4.50;81.04;98386.08;259001;1109;29092;-74
2021/03/04 21:41:41;;;;;;;61.67;32.40;;;;;;;4.42;81.36;98394.52;258682;1108;26562;-73
2021/03/04 21:46:44;;;;;;;66.37;34.20;;;;;;;4.38;81.39;98385.47;259020;1108;23560;-75
2021/03/04 21:51:46;;;;;;;67.83;34.93;;;;;;;4.35;81.70;98396.60;258780;1107;23157;-74
2021/03/04 21:56:49;;;;;;;72.53;35.70;;;;;;;4.36;81.60;98398.99;258930;1109;22994;-73
2021/03/04 22:01:50;;;;;;;57.13;31.87;;;;;;;4.34;81.44;98392.34;259107;1109;23178;-74
2021/03/04 22:06:54;;;;;;;65.07;32.40;;;;;;;4.31;81.77;98406.94;258798;1109;23071;-74
2021/03/04 22:11:56;;;;;;;61.00;30.00;;;;;;;4.30;81.94;98417.80;258915;1109;23478;-73
2021/03/04 22:16:58;;;;;;;67.30;33.23;;;;;;;4.27;81.82;98403.98;258914;1108;23099;-73
2021/03/04 22:22:00;;;;;;;60.43;30.23;;;;;;;4.26;82.20;98410.34;258768;1109;23416;-73
2021/03/04 22:27:03;;;;;;;69.67;34.07;;;;;;;4.28;82.11;98410.08;258656;1109;26364;-74
2021/03/04 22:32:06;;;;;;;62.23;35.23;;;;;;;4.26;81.72;98401.59;258755;1108;23029;-74
2021/03/04 22:37:10;;;;;;;54.95;30.55;;;;;;;4.24;82.20;98399.20;258970;1109;23223;-73
2021/03/04 22:42:12;;;;;;;60.67;33.20;;;;;;;4.20;82.02;98382.20;259153;1109;22969;-73
2021/03/04 22:47:15;;;;;;;62.35;31.60;;;;;;;4.21;82.28;98385.64;258852;1107;23232;-73
2021/03/04 22:52:18;;;;;;;64.23;31.63;;;;;;;4.20;82.47;98386.72;258992;1109;23160;-73
2021/03/04 22:57:20;;;;;;;66.60;31.50;;;;;;;4.13;82.38;98402.03;258881;1109;23366;-74
2021/03/04 23:02:22;;;;;;;58.80;28.65;;;;;;;3.97;82.51;98404.57;258721;1109;23026;-73
2021/03/04 23:07:25;;;;;;;52.70;27.53;;;;;;;3.74;82.04;98413.68;258996;1108;23090;-75
2021/03/04 23:12:27;;;;;;;63.05;28.20;;;;;;;3.57;82.11;98416.45;258794;1109;23033;-73